sensor_id;sensor_type;location;lat;lon;timestamp;pressure;altitude;pressure_sealevel;temperature;humidity
26112;BME280;13829;48.990;8.346;2024-01-15T00:00:17;99647.09;;;-0.40;85.60
26112;BME280;13829;48.990;8.346;2024-01-15T00:02:44;99646.72;;;-0.50;85.89
26112;BME280;13829;48.990;8.346;2024-01-15T00:05:11;99638.97;;;-0.50;84.98
26112;BME280;13829;48.990;8.346;2024-01-15T00:07:38;99643.50;;;-0.44;86.08
26112;BME280;13829;48.990;8.346;2024-01-15T00:10:07;99639.94;;;-0.47;85.84
26112;BME280;13829;48.990;8.346;2024-01-15T00:12:34;99643.38;;;-0.47;86.28
26112;BME280;13829;48.990;8.346;2024-01-15T00:15:01;99639.38;;;-0.39;86.20
26112;BME280;13829;48.990;8.346;2024-01-15T00:17:28;99636.06;;;-0.59;85.58
26112;BME280;13829;48.990;8.346;2024-01-15T00:19:55;99641.91;;;-0.40;86.70
26112;BME280;13829;48.990;8.346;2024-01-15T00:22:23;99636.75;;;-0.40;85.76
26112;BME280;13829;48.990;8.346;2024-01-15T00:24:50;99635.75;;;-0.44;86.20
26112;BME280;13829;48.990;8.346;2024-01-15T00:27:18;99633.13;;;-0.45;86.43
26112;BME280;13829;48.990;8.346;2024-01-15T00:29:45;99639.78;;;-0.28;86.86
26112;BME280;13829;48.990;8.346;2024-01-15T00:32:12;99628.19;;;-0.39;86.56
26112;BME280;13829;48.990;8.346;2024-01-15T00:34:39;99628.84;;;-0.21;86.59
26112;BME280;13829;48.990;8.346;2024-01-15T00:37:06;99631.81;;;-0.34;86.62
26112;BME280;13829;48.990;8.346;2024-01-15T00:39:33;99617.13;;;-0.35;86.24
26112;BME280;13829;48.990;8.346;2024-01-15T00:42:01;99622.94;;;-0.41;86.50
26112;BME280;13829;48.990;8.346;2024-01-15T00:44:30;99610.94;;;-0.40;86.82
26112;BME280;13829;48.990;8.346;2024-01-15T00:46:57;99610.38;;;-0.31;87.24
26112;BME280;13829;48.990;8.346;2024-01-15T00:49:23;99607.53;;;-0.39;86.68
26112;BME280;13829;48.990;8.346;2024-01-15T00:51:51;99608.88;;;-0.49;87.25
26112;BME280;13829;48.990;8.346;2024-01-15T00:54:17;99609.94;;;-0.44;87.81
26112;BME280;13829;48.990;8.346;2024-01-15T00:56:44;99610.59;;;-0.25;87.12
26112;BME280;13829;48.990;8.346;2024-01-15T00:59:11;99611.56;;;-0.22;87.33
26112;BME280;13829;48.990;8.346;2024-01-15T01:01:43;99608.28;;;-0.42;86.85
26112;BME280;13829;48.990;8.346;2024-01-15T01:04:11;99597.84;;;-0.45;86.67
26112;BME280;13829;48.990;8.346;2024-01-15T01:06:38;99601.22;;;-0.46;87.67
26112;BME280;13829;48.990;8.346;2024-01-15T01:09:05;99603.13;;;-0.42;87.52
26112;BME280;13829;48.990;8.346;2024-01-15T01:11:32;99598.16;;;-0.60;87.48
26112;BME280;13829;48.990;8.346;2024-01-15T01:13:59;99599.41;;;-0.48;87.74
26112;BME280;13829;48.990;8.346;2024-01-15T01:16:27;99596.13;;;-0.44;88.15
26112;BME280;13829;48.990;8.346;2024-01-15T01:18:55;99597.28;;;-0.36;87.46
26112;BME280;13829;48.990;8.346;2024-01-15T01:21:22;99595.66;;;-0.34;87.28
26112;BME280;13829;48.990;8.346;2024-01-15T01:23:49;99598.59;;;-0.47;87.02
26112;BME280;13829;48.990;8.346;2024-01-15T01:26:16;99589.63;;;-0.33;88.11
26112;BME280;13829;48.990;8.346;2024-01-15T01:28:43;99596.13;;;-0.44;87.07
26112;BME280;13829;48.990;8.346;2024-01-15T01:31:10;99589.97;;;-0.24;87.80
26112;BME280;13829;48.990;8.346;2024-01-15T01:33:39;99587.50;;;-0.21;86.99
26112;BME280;13829;48.990;8.346;2024-01-15T01:36:09;99581.94;;;-0.07;87.01
26112;BME280;13829;48.990;8.346;2024-01-15T01:38:36;99584.72;;;-0.01;86.43
26112;BME280;13829;48.990;8.346;2024-01-15T01:41:03;99587.41;;;-0.24;86.20
26112;BME280;13829;48.990;8.346;2024-01-15T01:43:30;99591.50;;;-0.05;86.73
26112;BME280;13829;48.990;8.346;2024-01-15T01:45:58;99592.91;;;-0.13;86.60
26112;BME280;13829;48.990;8.346;2024-01-15T01:48:27;99600.03;;;-0.07;85.84
26112;BME280;13829;48.990;8.346;2024-01-15T01:51:00;99601.44;;;-0.15;86.74
26112;BME280;13829;48.990;8.346;2024-01-15T01:53:31;99597.59;;;-0.27;87.40
26112;BME280;13829;48.990;8.346;2024-01-15T01:55:59;99599.28;;;-0.29;87.69
26112;BME280;13829;48.990;8.346;2024-01-15T01:58:27;99603.41;;;-0.34;87.48
26112;BME280;13829;48.990;8.346;2024-01-15T02:00:55;99598.72;;;-0.20;88.11
26112;BME280;13829;48.990;8.346;2024-01-15T02:03:22;99601.03;;;-0.28;88.31
26112;BME280;13829;48.990;8.346;2024-01-15T02:05:50;99597.19;;;-0.39;87.69
26112;BME280;13829;48.990;8.346;2024-01-15T02:08:18;99599.78;;;-0.39;88.16
26112;BME280;13829;48.990;8.346;2024-01-15T02:10:47;99589.50;;;-0.38;88.45
26112;BME280;13829;48.990;8.346;2024-01-15T02:13:14;99586.56;;;-0.23;88.71
26112;BME280;13829;48.990;8.346;2024-01-15T02:15:41;99587.78;;;-0.37;88.75
26112;BME280;13829;48.990;8.346;2024-01-15T02:18:08;99581.31;;;-0.24;88.46
26112;BME280;13829;48.990;8.346;2024-01-15T02:20:36;99576.53;;;-0.39;89.31
26112;BME280;13829;48.990;8.346;2024-01-15T02:23:09;99580.47;;;-0.25;88.63
26112;BME280;13829;48.990;8.346;2024-01-15T02:25:39;99572.66;;;-0.26;88.50
26112;BME280;13829;48.990;8.346;2024-01-15T02:28:09;99575.94;;;-0.30;88.14
26112;BME280;13829;48.990;8.346;2024-01-15T02:30:39;99580.56;;;-0.22;89.08
26112;BME280;13829;48.990;8.346;2024-01-15T02:33:06;99570.34;;;-0.19;88.60
26112;BME280;13829;48.990;8.346;2024-01-15T02:35:34;99567.75;;;-0.19;88.69
26112;BME280;13829;48.990;8.346;2024-01-15T02:38:02;99572.88;;;-0.20;88.68
26112;BME280;13829;48.990;8.346;2024-01-15T02:40:32;99567.03;;;-0.14;88.77
26112;BME280;13829;48.990;8.346;2024-01-15T02:42:58;99569.63;;;-0.14;88.12
26112;BME280;13829;48.990;8.346;2024-01-15T02:45:25;99566.09;;;-0.17;88.95
26112;BME280;13829;48.990;8.346;2024-01-15T02:47:52;99572.81;;;-0.22;88.75
26112;BME280;13829;48.990;8.346;2024-01-15T02:50:19;99572.41;;;-0.34;88.81
26112;BME280;13829;48.990;8.346;2024-01-15T02:52:46;99571.22;;;-0.18;89.84
26112;BME280;13829;48.990;8.346;2024-01-15T02:55:13;99571.44;;;-0.36;89.17
26112;BME280;13829;48.990;8.346;2024-01-15T02:57:42;99572.28;;;-0.37;90.12
26112;BME280;13829;48.990;8.346;2024-01-15T03:00:10;99566.03;;;-0.18;90.05
26112;BME280;13829;48.990;8.346;2024-01-15T03:02:38;99576.28;;;-0.21;89.64
26112;BME280;13829;48.990;8.346;2024-01-15T03:05:06;99576.34;;;-0.20;89.00
26112;BME280;13829;48.990;8.346;2024-01-15T03:07:34;99566.88;;;-0.19;89.60
26112;BME280;13829;48.990;8.346;2024-01-15T03:10:01;99566.00;;;-0.20;89.13
26112;BME280;13829;48.990;8.346;2024-01-15T03:12:28;99560.09;;;-0.15;89.20
26112;BME280;13829;48.990;8.346;2024-01-15T03:14:56;99566.09;;;-0.17;88.05
26112;BME280;13829;48.990;8.346;2024-01-15T03:17:23;99555.63;;;-0.21;88.47
26112;BME280;13829;48.990;8.346;2024-01-15T03:19:50;99565.19;;;-0.19;89.10
26112;BME280;13829;48.990;8.346;2024-01-15T03:22:17;99564.06;;;-0.01;89.27
26112;BME280;13829;48.990;8.346;2024-01-15T03:24:44;99561.66;;;-0.21;88.41
26112;BME280;13829;48.990;8.346;2024-01-15T03:27:11;99557.59;;;-0.14;88.54
26112;BME280;13829;48.990;8.346;2024-01-15T03:29:39;99562.06;;;0.18;88.73
26112;BME280;13829;48.990;8.346;2024-01-15T03:32:08;99559.78;;;0.01;89.11
26112;BME280;13829;48.990;8.346;2024-01-15T03:34:34;99549.97;;;-0.09;89.46
26112;BME280;13829;48.990;8.346;2024-01-15T03:37:01;99555.34;;;-0.03;89.14
26112;BME280;13829;48.990;8.346;2024-01-15T03:39:29;99555.56;;;0.03;89.83
26112;BME280;13829;48.990;8.346;2024-01-15T03:41:56;99561.94;;;0.13;89.23
26112;BME280;13829;48.990;8.346;2024-01-15T03:44:23;99557.41;;;0.07;89.19
26112;BME280;13829;48.990;8.346;2024-01-15T03:46:50;99551.25;;;0.04;89.52
26112;BME280;13829;48.990;8.346;2024-01-15T03:49:18;99552.88;;;0.26;88.94
26112;BME280;13829;48.990;8.346;2024-01-15T03:51:45;99538.91;;;0.21;89.17
26112;BME280;13829;48.990;8.346;2024-01-15T03:54:12;99545.59;;;0.41;88.43
26112;BME280;13829;48.990;8.346;2024-01-15T03:56:39;99534.81;;;0.27;88.45
26112;BME280;13829;48.990;8.346;2024-01-15T03:59:06;99534.75;;;0.26;88.20
26112;BME280;13829;48.990;8.346;2024-01-15T04:01:33;99527.63;;;0.19;87.56
26112;BME280;13829;48.990;8.346;2024-01-15T04:04:00;99535.97;;;0.10;89.29
26112;BME280;13829;48.990;8.346;2024-01-15T04:06:28;99524.34;;;-0.03;89.29
26112;BME280;13829;48.990;8.346;2024-01-15T04:08:55;99510.31;;;0.16;89.59
26112;BME280;13829;48.990;8.346;2024-01-15T04:11:22;99516.00;;;0.06;90.06
26112;BME280;13829;48.990;8.346;2024-01-15T04:13:49;99498.84;;;0.08;90.39
26112;BME280;13829;48.990;8.346;2024-01-15T04:16:16;99496.00;;;0.27;89.93
26112;BME280;13829;48.990;8.346;2024-01-15T04:18:43;99489.00;;;0.23;90.54
26112;BME280;13829;48.990;8.346;2024-01-15T04:21:10;99499.47;;;0.28;90.52
26112;BME280;13829;48.990;8.346;2024-01-15T04:23:39;99502.72;;;0.21;89.60
26112;BME280;13829;48.990;8.346;2024-01-15T04:26:06;99499.31;;;0.22;90.62
26112;BME280;13829;48.990;8.346;2024-01-15T04:28:33;99508.34;;;0.36;90.86
26112;BME280;13829;48.990;8.346;2024-01-15T04:30:59;99503.09;;;0.33;91.25
26112;BME280;13829;48.990;8.346;2024-01-15T04:33:28;99496.97;;;0.29;90.61
26112;BME280;13829;48.990;8.346;2024-01-15T04:35:54;99490.88;;;0.29;91.23
26112;BME280;13829;48.990;8.346;2024-01-15T04:38:21;99490.41;;;0.13;91.93
26112;BME280;13829;48.990;8.346;2024-01-15T04:40:50;99471.91;;;0.01;91.40
26112;BME280;13829;48.990;8.346;2024-01-15T04:43:16;99470.50;;;0.11;92.28
26112;BME280;13829;48.990;8.346;2024-01-15T04:45:43;99472.31;;;0.13;92.14
26112;BME280;13829;48.990;8.346;2024-01-15T04:48:10;99485.69;;;0.00;92.88
26112;BME280;13829;48.990;8.346;2024-01-15T04:50:37;99478.09;;;-0.21;92.82
26112;BME280;13829;48.990;8.346;2024-01-15T04:53:04;99471.00;;;-0.27;93.74
26112;BME280;13829;48.990;8.346;2024-01-15T04:55:31;99458.09;;;-0.27;93.97
26112;BME280;13829;48.990;8.346;2024-01-15T04:57:59;99459.38;;;-0.14;94.45
26112;BME280;13829;48.990;8.346;2024-01-15T05:00:26;99465.94;;;-0.24;94.22
26112;BME280;13829;48.990;8.346;2024-01-15T05:02:53;99468.53;;;-0.24;95.22
26112;BME280;13829;48.990;8.346;2024-01-15T05:05:20;99463.56;;;-0.18;94.76
26112;BME280;13829;48.990;8.346;2024-01-15T05:07:47;99469.72;;;-0.14;95.04
26112;BME280;13829;48.990;8.346;2024-01-15T05:10:14;99463.38;;;-0.24;95.90
26112;BME280;13829;48.990;8.346;2024-01-15T05:12:40;99460.00;;;-0.21;96.07
26112;BME280;13829;48.990;8.346;2024-01-15T05:15:09;99442.69;;;-0.24;95.54
26112;BME280;13829;48.990;8.346;2024-01-15T05:17:36;99446.59;;;-0.09;96.01
26112;BME280;13829;48.990;8.346;2024-01-15T05:20:04;99444.06;;;-0.08;95.87
26112;BME280;13829;48.990;8.346;2024-01-15T05:22:31;99447.94;;;-0.21;95.35
26112;BME280;13829;48.990;8.346;2024-01-15T05:24:58;99446.19;;;-0.22;96.40
26112;BME280;13829;48.990;8.346;2024-01-15T05:27:25;99436.75;;;-0.21;96.13
26112;BME280;13829;48.990;8.346;2024-01-15T05:29:52;99438.97;;;-0.06;96.08
26112;BME280;13829;48.990;8.346;2024-01-15T05:32:20;99444.25;;;-0.02;96.40
26112;BME280;13829;48.990;8.346;2024-01-15T05:34:47;99443.81;;;0.12;95.63
26112;BME280;13829;48.990;8.346;2024-01-15T05:37:14;99438.31;;;0.01;95.98
26112;BME280;13829;48.990;8.346;2024-01-15T05:39:41;99445.81;;;-0.07;96.60
26112;BME280;13829;48.990;8.346;2024-01-15T05:42:08;99458.44;;;0.11;96.62
26112;BME280;13829;48.990;8.346;2024-01-15T05:44:35;99443.19;;;0.19;96.05
26112;BME280;13829;48.990;8.346;2024-01-15T05:47:02;99444.84;;;-0.10;96.19
26112;BME280;13829;48.990;8.346;2024-01-15T05:49:31;99436.66;;;0.03;95.47
26112;BME280;13829;48.990;8.346;2024-01-15T05:51:57;99437.88;;;0.14;96.36
26112;BME280;13829;48.990;8.346;2024-01-15T05:54:24;99422.59;;;0.22;96.35
26112;BME280;13829;48.990;8.346;2024-01-15T05:56:51;99415.53;;;0.17;95.62
26112;BME280;13829;48.990;8.346;2024-01-15T05:59:18;99414.00;;;-0.04;96.13
26112;BME280;13829;48.990;8.346;2024-01-15T06:01:45;99394.34;;;0.01;96.20
26112;BME280;13829;48.990;8.346;2024-01-15T06:04:12;99394.38;;;0.30;96.40
26112;BME280;13829;48.990;8.346;2024-01-15T06:06:40;99402.06;;;0.27;95.51
26112;BME280;13829;48.990;8.346;2024-01-15T06:09:07;99397.84;;;0.30;94.93
26112;BME280;13829;48.990;8.346;2024-01-15T06:11:34;99410.63;;;0.26;95.39
26112;BME280;13829;48.990;8.346;2024-01-15T06:14:01;99403.94;;;0.32;94.92
26112;BME280;13829;48.990;8.346;2024-01-15T06:16:29;99404.16;;;0.40;94.46
26112;BME280;13829;48.990;8.346;2024-01-15T06:18:56;99413.59;;;0.38;94.15
26112;BME280;13829;48.990;8.346;2024-01-15T06:21:23;99419.03;;;0.47;94.16
26112;BME280;13829;48.990;8.346;2024-01-15T06:23:51;99415.03;;;0.57;94.13
26112;BME280;13829;48.990;8.346;2024-01-15T06:26:18;99417.09;;;0.40;93.06
26112;BME280;13829;48.990;8.346;2024-01-15T06:28:45;99429.38;;;0.47;94.60
26112;BME280;13829;48.990;8.346;2024-01-15T06:31:12;99432.75;;;0.45;94.43
26112;BME280;13829;48.990;8.346;2024-01-15T06:33:39;99428.25;;;0.39;94.52
26112;BME280;13829;48.990;8.346;2024-01-15T06:36:06;99427.63;;;0.46;94.51
26112;BME280;13829;48.990;8.346;2024-01-15T06:38:34;99421.47;;;0.43;93.60
26112;BME280;13829;48.990;8.346;2024-01-15T06:41:02;99423.50;;;0.53;94.79
26112;BME280;13829;48.990;8.346;2024-01-15T06:43:29;99431.72;;;0.38;94.02
26112;BME280;13829;48.990;8.346;2024-01-15T06:45:56;99426.84;;;0.49;94.76
26112;BME280;13829;48.990;8.346;2024-01-15T06:48:23;99426.47;;;0.37;94.36
26112;BME280;13829;48.990;8.346;2024-01-15T06:50:50;99431.81;;;0.43;94.76
26112;BME280;13829;48.990;8.346;2024-01-15T06:53:17;99427.81;;;0.24;95.29
26112;BME280;13829;48.990;8.346;2024-01-15T06:55:44;99432.50;;;0.36;95.25
26112;BME280;13829;48.990;8.346;2024-01-15T06:58:12;99433.84;;;0.53;95.06
26112;BME280;13829;48.990;8.346;2024-01-15T07:00:39;99431.59;;;0.64;94.83
26112;BME280;13829;48.990;8.346;2024-01-15T07:03:06;99428.81;;;0.58;93.86
26112;BME280;13829;48.990;8.346;2024-01-15T07:05:33;99423.28;;;0.45;94.99
26112;BME280;13829;48.990;8.346;2024-01-15T07:08:01;99427.22;;;0.61;94.92
26112;BME280;13829;48.990;8.346;2024-01-15T07:10:27;99431.97;;;0.47;95.06
26112;BME280;13829;48.990;8.346;2024-01-15T07:12:54;99439.91;;;0.54;95.17
26112;BME280;13829;48.990;8.346;2024-01-15T07:15:23;99433.97;;;0.56;94.07
26112;BME280;13829;48.990;8.346;2024-01-15T07:17:50;99436.50;;;0.55;94.42
26112;BME280;13829;48.990;8.346;2024-01-15T07:20:17;99430.59;;;0.30;94.58
26112;BME280;13829;48.990;8.346;2024-01-15T07:22:45;99440.56;;;0.46;95.05
26112;BME280;13829;48.990;8.346;2024-01-15T07:25:12;99433.06;;;0.56;94.68
26112;BME280;13829;48.990;8.346;2024-01-15T07:27:39;99435.88;;;0.33;95.23
26112;BME280;13829;48.990;8.346;2024-01-15T07:30:11;99438.84;;;0.18;95.84
26112;BME280;13829;48.990;8.346;2024-01-15T07:32:39;99445.34;;;0.34;96.06
26112;BME280;13829;48.990;8.346;2024-01-15T07:35:07;99453.09;;;0.34;95.60
26112;BME280;13829;48.990;8.346;2024-01-15T07:37:34;99447.41;;;0.44;95.77
26112;BME280;13829;48.990;8.346;2024-01-15T07:40:01;99443.94;;;0.44;95.46
26112;BME280;13829;48.990;8.346;2024-01-15T07:42:30;99436.13;;;0.42;95.52
26112;BME280;13829;48.990;8.346;2024-01-15T07:44:57;99440.31;;;0.39;95.86
26112;BME280;13829;48.990;8.346;2024-01-15T07:47:24;99445.53;;;0.40;95.86
26112;BME280;13829;48.990;8.346;2024-01-15T07:49:52;99446.66;;;0.48;96.16
26112;BME280;13829;48.990;8.346;2024-01-15T07:52:20;99452.22;;;0.61;94.83
26112;BME280;13829;48.990;8.346;2024-01-15T07:54:47;99451.06;;;0.81;94.19
26112;BME280;13829;48.990;8.346;2024-01-15T07:57:14;99445.16;;;0.86;93.56
26112;BME280;13829;48.990;8.346;2024-01-15T07:59:41;99444.66;;;0.99;92.60
26112;BME280;13829;48.990;8.346;2024-01-15T08:02:08;99440.72;;;0.81;92.70
26112;BME280;13829;48.990;8.346;2024-01-15T08:04:36;99444.75;;;0.72;92.95
26112;BME280;13829;48.990;8.346;2024-01-15T08:07:05;99441.41;;;0.76;93.77
26112;BME280;13829;48.990;8.346;2024-01-15T08:09:32;99437.50;;;0.89;93.95
26112;BME280;13829;48.990;8.346;2024-01-15T08:12:00;99434.25;;;0.97;94.63
26112;BME280;13829;48.990;8.346;2024-01-15T08:14:27;99436.53;;;0.85;93.41
26112;BME280;13829;48.990;8.346;2024-01-15T08:16:54;99432.56;;;0.98;94.50
26112;BME280;13829;48.990;8.346;2024-01-15T08:19:21;99425.00;;;1.06;93.21
26112;BME280;13829;48.990;8.346;2024-01-15T08:21:48;99425.38;;;1.20;92.30
26112;BME280;13829;48.990;8.346;2024-01-15T08:24:17;99425.53;;;1.26;92.35
26112;BME280;13829;48.990;8.346;2024-01-15T08:26:44;99424.88;;;1.33;92.89
26112;BME280;13829;48.990;8.346;2024-01-15T08:29:11;99422.22;;;1.32;92.96
26112;BME280;13829;48.990;8.346;2024-01-15T08:31:38;99404.25;;;1.38;92.29
26112;BME280;13829;48.990;8.346;2024-01-15T08:34:05;99400.06;;;1.43;92.00
26112;BME280;13829;48.990;8.346;2024-01-15T08:36:33;99390.50;;;1.40;91.71
26112;BME280;13829;48.990;8.346;2024-01-15T08:39:02;99399.50;;;1.55;91.52
26112;BME280;13829;48.990;8.346;2024-01-15T08:41:31;99407.50;;;1.64;90.23
26112;BME280;13829;48.990;8.346;2024-01-15T08:43:58;99394.41;;;1.58;90.60
26112;BME280;13829;48.990;8.346;2024-01-15T08:46:25;99389.34;;;1.62;90.07
26112;BME280;13829;48.990;8.346;2024-01-15T08:48:52;99411.84;;;1.65;90.18
26112;BME280;13829;48.990;8.346;2024-01-15T08:51:19;99412.72;;;1.66;90.43
26112;BME280;13829;48.990;8.346;2024-01-15T08:53:46;99421.97;;;1.56;89.80
26112;BME280;13829;48.990;8.346;2024-01-15T08:56:13;99423.53;;;1.49;90.43
26112;BME280;13829;48.990;8.346;2024-01-15T08:58:41;99420.31;;;1.58;89.71
26112;BME280;13829;48.990;8.346;2024-01-15T09:01:08;99424.16;;;1.72;90.32
26112;BME280;13829;48.990;8.346;2024-01-15T09:03:35;99415.50;;;1.73;89.78
26112;BME280;13829;48.990;8.346;2024-01-15T09:06:03;99413.53;;;1.63;89.48
26112;BME280;13829;48.990;8.346;2024-01-15T09:08:30;99406.50;;;1.57;89.48
26112;BME280;13829;48.990;8.346;2024-01-15T09:10:56;99399.72;;;1.64;89.87
26112;BME280;13829;48.990;8.346;2024-01-15T09:13:24;99396.31;;;1.65;89.73
26112;BME280;13829;48.990;8.346;2024-01-15T09:15:52;99393.25;;;1.82;88.76
26112;BME280;13829;48.990;8.346;2024-01-15T09:18:19;99392.31;;;1.79;88.67
26112;BME280;13829;48.990;8.346;2024-01-15T09:20:46;99388.13;;;1.85;88.57
26112;BME280;13829;48.990;8.346;2024-01-15T09:23:13;99381.97;;;1.81;87.67
26112;BME280;13829;48.990;8.346;2024-01-15T09:25:40;99378.16;;;2.02;87.67
26112;BME280;13829;48.990;8.346;2024-01-15T09:28:07;99387.59;;;1.98;88.30
26112;BME280;13829;48.990;8.346;2024-01-15T09:30:34;99384.84;;;1.92;88.07
26112;BME280;13829;48.990;8.346;2024-01-15T09:33:03;99402.72;;;2.18;87.39
26112;BME280;13829;48.990;8.346;2024-01-15T09:35:30;99388.63;;;2.06;86.28
26112;BME280;13829;48.990;8.346;2024-01-15T09:37:57;99389.97;;;1.89;86.17
26112;BME280;13829;48.990;8.346;2024-01-15T09:40:29;99376.31;;;1.98;87.13
26112;BME280;13829;48.990;8.346;2024-01-15T09:42:58;99381.72;;;2.05;86.55
26112;BME280;13829;48.990;8.346;2024-01-15T09:45:26;99390.38;;;2.07;86.68
26112;BME280;13829;48.990;8.346;2024-01-15T09:47:53;99384.50;;;2.15;85.59
26112;BME280;13829;48.990;8.346;2024-01-15T09:50:21;99381.78;;;2.10;85.59
26112;BME280;13829;48.990;8.346;2024-01-15T09:52:48;99381.72;;;2.07;85.66
26112;BME280;13829;48.990;8.346;2024-01-15T09:55:17;99368.66;;;2.02;86.68
26112;BME280;13829;48.990;8.346;2024-01-15T09:57:45;99366.41;;;1.79;86.63
26112;BME280;13829;48.990;8.346;2024-01-15T10:00:13;99361.66;;;1.98;88.49
26112;BME280;13829;48.990;8.346;2024-01-15T10:02:41;99366.00;;;1.99;89.21
26112;BME280;13829;48.990;8.346;2024-01-15T10:05:09;99364.25;;;1.98;89.57
26112;BME280;13829;48.990;8.346;2024-01-15T10:07:37;99361.34;;;1.84;90.36
26112;BME280;13829;48.990;8.346;2024-01-15T10:10:06;99360.59;;;1.90;90.98
26112;BME280;13829;48.990;8.346;2024-01-15T10:12:35;99350.66;;;2.10;91.10
26112;BME280;13829;48.990;8.346;2024-01-15T10:15:03;99341.31;;;2.17;91.29
26112;BME280;13829;48.990;8.346;2024-01-15T10:17:30;99329.88;;;2.08;91.97
26112;BME280;13829;48.990;8.346;2024-01-15T10:19:57;99326.50;;;2.12;93.08
26112;BME280;13829;48.990;8.346;2024-01-15T10:22:25;99328.22;;;2.10;93.73
26112;BME280;13829;48.990;8.346;2024-01-15T10:24:54;99337.66;;;2.08;93.05
26112;BME280;13829;48.990;8.346;2024-01-15T10:27:21;99336.97;;;2.16;94.71
26112;BME280;13829;48.990;8.346;2024-01-15T10:29:47;99324.00;;;2.16;95.35
26112;BME280;13829;48.990;8.346;2024-01-15T10:32:14;99332.59;;;2.13;96.32
26112;BME280;13829;48.990;8.346;2024-01-15T10:34:41;99330.88;;;2.14;96.20
26112;BME280;13829;48.990;8.346;2024-01-15T10:37:09;99327.53;;;2.19;96.40
26112;BME280;13829;48.990;8.346;2024-01-15T10:39:36;99332.28;;;1.99;98.21
26112;BME280;13829;48.990;8.346;2024-01-15T10:42:05;99322.94;;;2.07;98.39
26112;BME280;13829;48.990;8.346;2024-01-15T10:44:32;99324.44;;;1.96;99.80
26112;BME280;13829;48.990;8.346;2024-01-15T10:47:00;99313.03;;;1.88;100.00
26112;BME280;13829;48.990;8.346;2024-01-15T10:49:27;99313.69;;;1.79;100.00
26112;BME280;13829;48.990;8.346;2024-01-15T10:51:56;99319.88;;;1.86;100.00
26112;BME280;13829;48.990;8.346;2024-01-15T10:54:24;99314.47;;;1.75;100.00
26112;BME280;13829;48.990;8.346;2024-01-15T10:56:54;99312.06;;;1.83;100.00
26112;BME280;13829;48.990;8.346;2024-01-15T10:59:24;99308.72;;;1.90;100.00
26112;BME280;13829;48.990;8.346;2024-01-15T11:01:52;99304.28;;;1.83;100.00
26112;BME280;13829;48.990;8.346;2024-01-15T11:04:20;99304.31;;;1.84;100.00
26112;BME280;13829;48.990;8.346;2024-01-15T11:06:54;99303.31;;;1.77;100.00
26112;BME280;13829;48.990;8.346;2024-01-15T11:09:23;99301.31;;;1.67;100.00
26112;BME280;13829;48.990;8.346;2024-01-15T11:12:07;99303.22;;;1.74;100.00
26112;BME280;13829;48.990;8.346;2024-01-15T11:14:40;99304.94;;;1.74;100.00
26112;BME280;13829;48.990;8.346;2024-01-15T11:17:10;99299.78;;;1.75;100.00
26112;BME280;13829;48.990;8.346;2024-01-15T11:19:38;99305.03;;;1.78;100.00
26112;BME280;13829;48.990;8.346;2024-01-15T11:22:09;99303.03;;;1.67;100.00
26112;BME280;13829;48.990;8.346;2024-01-15T11:24:39;99292.66;;;1.67;100.00
26112;BME280;13829;48.990;8.346;2024-01-15T11:27:07;99303.16;;;1.71;100.00
26112;BME280;13829;48.990;8.346;2024-01-15T11:29:37;99297.88;;;1.68;100.00
26112;BME280;13829;48.990;8.346;2024-01-15T11:32:05;99295.31;;;1.70;100.00
26112;BME280;13829;48.990;8.346;2024-01-15T11:34:57;99307.63;;;1.78;100.00
26112;BME280;13829;48.990;8.346;2024-01-15T11:37:26;99309.59;;;1.89;100.00
26112;BME280;13829;48.990;8.346;2024-01-15T11:39:54;99304.44;;;1.90;100.00
26112;BME280;13829;48.990;8.346;2024-01-15T11:42:22;99311.28;;;1.87;100.00
26112;BME280;13829;48.990;8.346;2024-01-15T11:44:50;99306.88;;;1.83;100.00
26112;BME280;13829;48.990;8.346;2024-01-15T11:50:43;99318.28;;;1.92;100.00
26112;BME280;13829;48.990;8.346;2024-01-15T11:53:30;99314.16;;;1.99;100.00
26112;BME280;13829;48.990;8.346;2024-01-15T11:56:03;99323.59;;;1.97;100.00
26112;BME280;13829;48.990;8.346;2024-01-15T11:58:32;99322.81;;;2.01;100.00
26112;BME280;13829;48.990;8.346;2024-01-15T12:01:02;99326.97;;;1.93;100.00
26112;BME280;13829;48.990;8.346;2024-01-15T12:03:32;99323.78;;;2.06;100.00
26112;BME280;13829;48.990;8.346;2024-01-15T12:06:00;99327.41;;;2.13;100.00
26112;BME280;13829;48.990;8.346;2024-01-15T12:08:27;99318.66;;;2.08;100.00
26112;BME280;13829;48.990;8.346;2024-01-15T12:10:54;99318.66;;;2.08;100.00
26112;BME280;13829;48.990;8.346;2024-01-15T12:13:22;99314.38;;;2.11;100.00
26112;BME280;13829;48.990;8.346;2024-01-15T12:15:49;99320.56;;;2.17;100.00
26112;BME280;13829;48.990;8.346;2024-01-15T12:18:18;99322.34;;;2.19;100.00
26112;BME280;13829;48.990;8.346;2024-01-15T12:20:46;99325.56;;;2.09;100.00
26112;BME280;13829;48.990;8.346;2024-01-15T12:23:13;99327.31;;;2.08;100.00
26112;BME280;13829;48.990;8.346;2024-01-15T12:25:41;99332.28;;;1.99;100.00
26112;BME280;13829;48.990;8.346;2024-01-15T12:28:09;99329.09;;;2.12;100.00
26112;BME280;13829;48.990;8.346;2024-01-15T12:30:36;99327.47;;;2.16;100.00
26112;BME280;13829;48.990;8.346;2024-01-15T12:33:05;99319.13;;;2.31;100.00
26112;BME280;13829;48.990;8.346;2024-01-15T12:35:34;99325.25;;;2.35;100.00
26112;BME280;13829;48.990;8.346;2024-01-15T12:38:02;99320.91;;;2.34;100.00
26112;BME280;13829;48.990;8.346;2024-01-15T12:40:31;99316.69;;;2.39;100.00
26112;BME280;13829;48.990;8.346;2024-01-15T12:42:58;99314.00;;;2.34;100.00
26112;BME280;13829;48.990;8.346;2024-01-15T12:45:26;99309.72;;;2.36;100.00
26112;BME280;13829;48.990;8.346;2024-01-15T12:47:54;99312.47;;;2.44;100.00
26112;BME280;13829;48.990;8.346;2024-01-15T12:50:25;99318.44;;;2.38;100.00
26112;BME280;13829;48.990;8.346;2024-01-15T12:52:53;99318.59;;;2.48;100.00
26112;BME280;13829;48.990;8.346;2024-01-15T12:55:20;99326.63;;;2.60;100.00
26112;BME280;13829;48.990;8.346;2024-01-15T12:57:47;99333.66;;;2.66;100.00
26112;BME280;13829;48.990;8.346;2024-01-15T13:00:16;99332.97;;;2.74;100.00
26112;BME280;13829;48.990;8.346;2024-01-15T13:02:43;99322.56;;;2.73;100.00
26112;BME280;13829;48.990;8.346;2024-01-15T13:05:11;99319.13;;;2.74;100.00
26112;BME280;13829;48.990;8.346;2024-01-15T13:07:38;99332.22;;;2.80;100.00
26112;BME280;13829;48.990;8.346;2024-01-15T13:10:08;99331.41;;;2.83;100.00